Hosford, FL (32334)

7:55 AM EDT on September 01, 2014 (GMT -0400)
RAWS SUMATRA FL US | Change Station
CLOSE
Current Station
Personal Weather Station
Location: Sumatra, FL
Elevation: 26 ft
Nearby Weather Stations

Elev 26 ft 30.02 °N, 84.99 °W | Updated 51 minutes ago

Partly Cloudy
Partly Cloudy
71 °F
Feels Like 71 °F
N
0
Wind Variable Wind from North
Gusts 0.0 mph

Today
High -- | Low -- °F
--% Chance of Precip.
Yesterday
High -- | Low -- °F
Precip. -- in
7:16 AM 8:01 PM
Waxing Crescent, 40% visible
Pressure 30.09 in
Visibility 10.0 miles
Clouds Mostly Cloudy 25000 ft
Dew Point 70 °F
Humidity 98%
Rainfall 0.00 in
Snow Depth Not available.
UV 0 out of 12
Pollen 7.70 out of 12
Air Quality Not available.
Flu Activity Not available.
METAR KTLH 011053Z 00000KT 10SM BKN250 24/22 A3009 RMK AO2 SLP187 T02390217 $

More Conditions Fewer Conditions

Pressure 30.09 in
Visibility 10.0 miles
Clouds Mostly Cloudy 25000 ft
Dew Point 70 °F
Humidity 98%
Rainfall 0.00 in
Snow Depth Not available.
UV 0 out of 12
Pollen 7.70 out of 12
Air Quality Not available.
Flu Activity Not available.
METAR KTLH 011053Z 00000KT 10SM BKN250 24/22 A3009 RMK AO2 SLP187 T02390217 $

More Conditions Fewer Conditions

10-Day Weather Forecast

Almanac

Astronomy

Sep. 01, 2014 Rise Set
Actual Time 7:16 AM EDT 8:01 PM EDT
Civil Twilight 6:51 AM EDT 8:26 PM EDT
Nautical Twilight 6:22 AM EDT 8:54 PM EDT
Astronomical Twilight 5:53 AM EDT 9:24 PM EDT
Moon 1:32 PM EDT No Moon Set
Length of Visible Light 13h 34m
Length of Day
12h 45m
Tomorrow will be 1m 46s shorter.
Waxing Crescent, 40% of the Moon is Illuminated
Today
Waxing Crescent
Sep 2
First Quarter
Sep 8
Full
Sep 15
Last Quarter
Sep 24
New

Today's Extremes

State Highs State Lows

Community

WunderPhotos

Upload Photos

1,749,192 photos uploaded!

Nearby

Snow Depth

Station Depth Elevation
No new snow has been reported.

Earthquake Activity

City Distance Mag. Time & Date
No recent earthquake activity has been reported nearby.
Minimum magnitude displayed is 2.5.

Coastal Water Temperatures

Place Temperature
Apalachicola, FL 88.0 °F
Panama City, FL 86.0 °F
Panama City Beach, FL 86.0 °F

Nearby Weather Stations